Time;durP1;ratioP1;P1;durP2;ratioP2;P2;SDS_P1;SDS_P2;PMS_P1;PMS_P2;Temp;Humidity;BMP_temperature;BMP_pressure;BME280_temperature;BME280_humidity;BME280_pressure;Samples;Min_cycle;Max_cycle;Signal;HPM_P1;HPM_P2
2023/08/28 07:51:41;;;;;;;5.13;1.70;;;17.00;76.80;;;;;;6274308;22;20089;-75
2023/08/28 07:54:09;;;;;;;6.82;1.80;;;17.00;76.90;;;;;;6274981;22;20078;-75
2023/08/28 07:56:36;;;;;;;4.40;1.40;;;17.00;77.20;;;;;;6274686;22;20014;-75
2023/08/28 07:59:06;;;;;;;4.25;1.40;;;17.00;77.20;;;;;;6276483;22;19995;-75
2023/08/28 08:01:35;;;;;;;8.07;1.60;;;17.00;77.10;;;;;;6274757;22;20022;-75
2023/08/28 08:04:02;;;;;;;8.25;1.75;;;17.00;77.40;;;;;;6275502;22;20026;-75
2023/08/28 08:06:30;;;;;;;6.68;1.73;;;17.00;77.40;;;;;;6275899;22;20419;-75
2023/08/28 08:08:58;;;;;;;3.30;1.50;;;17.00;77.50;;;;;;6249876;22;20003;-75
2023/08/28 08:11:25;;;;;;;2.92;1.45;;;17.00;77.50;;;;;;6276774;22;19996;-75
2023/08/28 08:13:52;;;;;;;8.65;1.75;;;17.00;77.60;;;;;;6276521;22;20002;-74
2023/08/28 08:16:19;;;;;;;2.97;1.70;;;16.90;77.90;;;;;;6275898;22;20070;-74
2023/08/28 08:18:46;;;;;;;4.13;1.60;;;16.90;78.20;;;;;;6275183;22;20000;-74
2023/08/28 08:21:15;;;;;;;7.65;1.38;;;16.90;78.40;;;;;;6275161;22;20259;-73
2023/08/28 08:23:42;;;;;;;4.95;1.40;;;16.90;78.50;;;;;;6273499;22;20015;-75
2023/08/28 08:26:10;;;;;;;5.40;1.70;;;16.90;78.80;;;;;;6274943;22;20054;-75
2023/08/28 08:28:38;;;;;;;3.92;1.73;;;16.90;78.90;;;;;;6275721;22;20423;-75
2023/08/28 08:31:05;;;;;;;7.53;1.80;;;16.90;78.90;;;;;;6276311;22;20007;-75
2023/08/28 08:33:32;;;;;;;5.95;1.73;;;16.90;78.90;;;;;;6275611;22;20062;-74
2023/08/28 08:36:00;;;;;;;3.40;1.58;;;16.80;78.80;;;;;;6273809;22;20066;-75
2023/08/28 08:38:27;;;;;;;6.03;1.52;;;16.80;78.90;;;;;;6275914;22;20006;-75
2023/08/28 08:40:55;;;;;;;3.60;1.40;;;16.80;79.00;;;;;;6276730;22;19995;-76
2023/08/28 08:43:22;;;;;;;7.72;1.65;;;16.80;79.00;;;;;;6275644;22;20023;-75
2023/08/28 08:45:50;;;;;;;6.40;1.90;;;16.80;79.30;;;;;;6249712;22;20026;-75
2023/08/28 08:48:20;;;;;;;5.82;1.70;;;16.80;79.40;;;;;;6249888;22;20415;-75
2023/08/28 08:50:47;;;;;;;13.10;4.93;;;16.80;79.40;;;;;;6275282;22;20020;-75
2023/08/28 08:53:28;;;;;;;7.88;2.33;;;16.70;79.50;;;;;;6276956;22;20291;-75
2023/08/28 08:55:58;;;;;;;8.82;4.13;;;16.70;79.70;;;;;;6275618;22;20431;-75
2023/08/28 08:58:26;;;;;;;8.75;2.45;;;16.70;79.80;;;;;;6276559;22;20007;-75
2023/08/28 09:00:53;;;;;;;6.50;2.00;;;16.70;79.90;;;;;;6250142;22;20003;-75
2023/08/28 09:03:21;;;;;;;9.98;1.75;;;16.70;80.00;;;;;;6276415;22;20087;-75
2023/08/28 09:05:48;;;;;;;5.63;1.67;;;16.70;80.10;;;;;;6249900;22;20327;-75
2023/08/28 09:08:15;;;;;;;6.18;1.58;;;16.70;80.10;;;;;;6275163;22;20011;-75
2023/08/28 09:10:48;;;;;;;6.57;1.65;;;16.70;80.00;;;;;;6249533;22;19996;-75
2023/08/28 09:13:15;;;;;;;9.98;1.90;;;16.70;80.20;;;;;;6275122;22;20011;-76
2023/08/28 09:15:42;;;;;;;7.43;1.83;;;16.70;80.30;;;;;;6275247;22;20018;-74
2023/08/28 09:18:10;;;;;;;3.15;1.55;;;16.70;80.30;;;;;;6276209;22;20548;-75
2023/08/28 09:20:37;;;;;;;3.90;1.80;;;16.70;80.40;;;;;;6276374;22;20431;-75
2023/08/28 09:23:04;;;;;;;5.47;1.63;;;16.70;80.40;;;;;;6275901;22;20011;-75
2023/08/28 09:25:32;;;;;;;4.78;1.90;;;16.70;80.50;;;;;;6276259;22;20003;-75
2023/08/28 09:27:59;;;;;;;4.80;1.75;;;16.70;80.60;;;;;;6249788;22;20019;-75
2023/08/28 09:30:32;;;;;;;4.68;1.65;;;16.70;80.50;;;;;;6276188;22;20011;-75
2023/08/28 09:33:01;;;;;;;4.22;1.48;;;16.70;80.60;;;;;;6277063;22;20046;-76
2023/08/28 09:35:28;;;;;;;4.82;1.67;;;16.70;80.80;;;;;;6276077;22;19995;-75
2023/08/28 09:37:59;;;;;;;4.95;2.15;;;16.70;80.90;;;;;;6276223;22;19999;-75
2023/08/28 09:40:26;;;;;;;;;;;16.70;81.10;;;;;;6275059;22;20008;-75
2023/08/28 09:42:53;;;;;;;4.38;1.98;;;16.70;81.20;;;;;;6275985;22;20281;-75
2023/08/28 09:45:20;;;;;;;3.75;1.70;;;16.70;81.60;;;;;;6276458;22;20000;-75
2023/08/28 09:47:54;;;;;;;4.90;2.03;;;16.70;81.30;;;;;;6274806;22;20006;-75
2023/08/28 09:50:28;;;;;;;3.38;2.00;;;16.70;81.30;;;;;;6274493;22;20015;-75
2023/08/28 09:52:55;;;;;;;3.50;1.70;;;16.70;81.20;;;;;;6274875;22;20434;-75
2023/08/28 09:55:22;;;;;;;6.93;1.75;;;16.70;81.10;;;;;;6276100;22;20014;-76
2023/08/28 09:57:50;;;;;;;3.60;1.80;;;16.70;81.00;;;;;;6274823;22;20086;-75
2023/08/28 10:00:18;;;;;;;6.55;1.70;;;16.70;80.80;;;;;;6275900;22;20385;-76
2023/08/28 10:02:45;;;;;;;3.83;1.67;;;16.70;80.90;;;;;;6274507;22;20339;-75
2023/08/28 10:05:12;;;;;;;3.30;1.60;;;16.70;80.90;;;;;;6249056;22;20011;-76
2023/08/28 10:07:39;;;;;;;8.25;1.92;;;16.70;80.90;;;;;;6249396;22;20380;-75
2023/08/28 10:10:07;;;;;;;5.50;2.00;;;16.70;80.90;;;;;;6274348;22;20007;-76
2023/08/28 10:12:35;;;;;;;4.97;2.35;;;16.70;80.80;;;;;;6274191;22;20427;-75
2023/08/28 10:15:03;;;;;;;6.03;1.70;;;16.70;80.60;;;;;;6249197;22;20091;-76
2023/08/28 10:17:31;;;;;;;4.43;2.00;;;16.60;80.30;;;;;;6273950;22;20427;-75
2023/08/28 10:19:59;;;;;;;6.20;2.15;;;16.60;79.90;;;;;;6274538;22;20003;-76
2023/08/28 10:22:27;;;;;;;3.95;1.77;;;16.70;79.90;;;;;;6274090;22;20022;-76
2023/08/28 10:24:57;;;;;;;3.30;1.55;;;16.70;79.80;;;;;;6274454;22;20334;-76
2023/08/28 10:27:24;;;;;;;4.63;1.80;;;16.70;79.90;;;;;;6275800;22;20089;-76
2023/08/28 10:29:52;;;;;;;5.70;2.10;;;16.70;79.90;;;;;;6249324;22;19999;-75
2023/08/28 10:32:19;;;;;;;3.63;2.30;;;16.60;79.80;;;;;;6274506;22;20004;-75
2023/08/28 10:34:46;;;;;;;5.75;2.47;;;16.60;79.80;;;;;;6249033;22;20399;-75
2023/08/28 10:37:14;;;;;;;3.90;2.10;;;16.60;79.90;;;;;;6248756;22;20023;-75
2023/08/28 10:39:42;;;;;;;4.60;2.20;;;16.60;79.90;;;;;;6274151;22;20427;-76
2023/08/28 10:42:10;;;;;;;7.03;1.92;;;16.60;79.90;;;;;;6275413;22;20003;-76
2023/08/28 10:44:38;;;;;;;6.50;1.90;;;16.60;79.80;;;;;;6274194;22;20012;-75
2023/08/28 10:47:05;;;;;;;9.73;2.30;;;16.60;79.60;;;;;;6274170;22;20007;-75
2023/08/28 10:49:36;;;;;;;5.22;1.90;;;16.60;79.80;;;;;;6275082;22;20453;-75
2023/08/28 10:52:06;;;;;;;3.25;2.15;;;16.50;79.90;;;;;;6274057;22;20003;-76
2023/08/28 10:54:37;;;;;;;7.93;1.87;;;16.60;79.90;;;;;;6274252;22;20415;-75
2023/08/28 10:57:10;;;;;;;4.10;1.83;;;16.60;79.80;;;;;;6274305;22;20217;-75
2023/08/28 10:59:44;;;;;;;6.47;2.08;;;16.60;79.70;;;;;;6273939;22;20028;-75
2023/08/28 11:02:11;;;;;;;3.53;1.90;;;16.60;79.60;;;;;;6274354;22;20014;-75
2023/08/28 11:04:40;;;;;;;5.22;2.13;;;16.60;79.80;;;;;;6274199;22;20012;-75
2023/08/28 11:07:25;;;;;;;5.20;2.03;;;16.50;80.00;;;;;;6275712;22;20411;-75
2023/08/28 11:10:19;;;;;;;4.95;1.73;;;16.50;79.90;;;;;;6275621;22;20360;-75
2023/08/28 11:13:00;;;;;;;5.60;2.20;;;16.50;80.00;;;;;;6273865;22;20378;-75
2023/08/28 11:15:43;;;;;;;7.35;2.70;;;16.50;80.10;;;;;;6275678;22;19999;-76
2023/08/28 11:18:19;;;;;;;6.50;2.20;;;16.50;80.20;;;;;;6273787;22;20044;-75
2023/08/28 11:20:56;;;;;;;8.93;2.65;;;16.50;80.20;;;;;;6275321;22;20007;-75
2023/08/28 11:23:25;;;;;;;6.78;2.22;;;16.60;80.50;;;;;;6275562;22;20045;-76
2023/08/28 11:25:53;;;;;;;6.78;2.30;;;16.60;80.50;;;;;;6273976;22;20033;-76
2023/08/28 11:28:30;;;;;;;12.48;2.47;;;16.60;80.60;;;;;;6275169;22;20419;-75
2023/08/28 11:31:02;;;;;;;8.15;2.00;;;16.60;80.60;;;;;;6277392;22;20429;-75
2023/08/28 11:33:39;;;;;;;5.22;2.25;;;16.60;80.60;;;;;;6275624;22;20000;-75
2023/08/28 11:36:07;;;;;;;5.88;2.00;;;16.60;80.80;;;;;;6277110;22;20018;-75
2023/08/28 11:38:35;;;;;;;7.75;1.90;;;16.60;81.10;;;;;;6277346;22;20055;-76
2023/08/28 11:41:04;;;;;;;8.25;2.42;;;16.60;81.30;;;;;;6277286;22;20023;-76
2023/08/28 11:43:36;;;;;;;7.47;2.20;;;16.60;81.60;;;;;;6277572;22;20390;-75
2023/08/28 11:46:06;;;;;;;7.80;2.08;;;16.50;81.70;;;;;;6277353;22;20027;-75
2023/08/28 11:48:40;;;;;;;5.72;1.70;;;16.50;82.30;;;;;;6277280;22;20373;-75
2023/08/28 11:51:08;;;;;;;6.18;1.92;;;16.50;82.90;;;;;;6275762;22;20022;-75
2023/08/28 11:53:37;;;;;;;9.55;2.58;;;16.40;83.20;;;;;;6275982;22;20430;-75
2023/08/28 11:56:05;;;;;;;6.20;1.92;;;16.40;83.90;;;;;;6250195;22;20008;-75
2023/08/28 11:58:37;;;;;;;12.88;2.30;;;16.40;84.10;;;;;;6277067;22;19996;-75
2023/08/28 12:01:05;;;;;;;6.70;1.70;;;16.30;84.50;;;;;;6275675;22;19999;-75
2023/08/28 12:03:33;;;;;;;9.02;2.08;;;16.30;84.40;;;;;;6275790;22;20114;-75
2023/08/28 12:06:08;;;;;;;5.10;1.90;;;16.20;84.60;;;;;;6275798;22;20020;-75
2023/08/28 12:08:40;;;;;;;6.97;2.00;;;16.20;84.70;;;;;;6277103;22;20026;-75
2023/08/28 12:11:08;;;;;;;8.52;2.13;;;16.20;85.40;;;;;;6275687;22;20038;-75
2023/08/28 12:13:36;;;;;;;8.55;2.33;;;16.20;85.50;;;;;;6275469;22;20427;-75
2023/08/28 12:16:20;;;;;;;6.32;1.95;;;16.20;85.60;;;;;;6276994;22;20006;-75
2023/08/28 12:18:50;;;;;;;6.32;2.10;;;16.20;85.60;;;;;;6275605;22;20026;-75
2023/08/28 12:21:38;;;;;;;4.68;1.90;;;16.20;85.70;;;;;;6277151;22;20289;-75
2023/08/28 12:24:10;;;;;;;4.05;1.83;;;16.20;85.60;;;;;;6276507;22;20047;-75
2023/08/28 12:26:37;;;;;;;4.68;1.55;;;16.20;85.10;;;;;;6274995;22;20011;-75
2023/08/28 12:29:04;;;;;;;5.93;1.83;;;16.20;85.70;;;;;;6276587;22;20427;-75
2023/08/28 12:31:35;;;;;;;7.43;1.73;;;16.20;85.80;;;;;;6275402;22;20000;-75
2023/08/28 12:34:12;;;;;;;4.20;1.90;;;16.20;86.10;;;;;;6275388;22;20174;-75
2023/08/28 12:36:46;;;;;;;7.47;1.95;;;16.10;86.30;;;;;;6275301;22;20007;-75
2023/08/28 12:39:17;;;;;;;3.50;1.55;;;16.10;86.10;;;;;;6276371;22;20004;-75
2023/08/28 12:41:56;;;;;;;5.07;1.70;;;16.10;86.10;;;;;;6274884;22;20007;-75
2023/08/28 12:44:24;;;;;;;6.67;1.80;;;16.10;85.90;;;;;;6276738;22;20012;-75
2023/08/28 12:46:52;;;;;;;3.10;1.55;;;16.00;85.90;;;;;;6275086;22;20004;-75
2023/08/28 12:49:22;;;;;;;6.43;1.70;;;16.10;86.00;;;;;;6275187;22;20028;-74
2023/08/28 12:51:53;;;;;;;;;;;16.00;86.10;;;;;;6276946;22;20031;-75
2023/08/28 12:54:20;;;;;;;2.25;1.30;;;16.00;85.80;;;;;;6250347;22;19903;-75
2023/08/28 12:56:48;;;;;;;3.08;1.45;;;16.00;85.70;;;;;;6276607;22;20004;-75
2023/08/28 12:59:16;;;;;;;3.60;1.88;;;16.00;85.90;;;;;;6275148;22;20000;-75
2023/08/28 13:01:43;;;;;;;4.30;2.17;;;16.00;86.30;;;;;;6275145;22;19999;-75
2023/08/28 13:04:11;;;;;;;6.43;2.45;;;15.90;86.70;;;;;;6276415;22;20007;-75
2023/08/28 13:06:38;;;;;;;4.53;2.35;;;15.90;87.00;;;;;;6250027;22;20022;-75
2023/08/28 13:09:06;;;;;;;4.03;2.47;;;15.90;87.20;;;;;;6275105;22;20004;-75
2023/08/28 13:11:34;;;;;;;5.05;2.30;;;15.80;87.40;;;;;;6275054;22;20019;-75
2023/08/28 13:14:02;;;;;;;6.95;2.50;;;15.80;87.50;;;;;;6275144;22;20062;-75
2023/08/28 13:16:30;;;;;;;9.20;3.30;;;15.70;87.60;;;;;;6275136;22;20000;-75
2023/08/28 13:18:59;;;;;;;8.15;2.60;;;15.70;87.70;;;;;;6274699;22;20012;-75
2023/08/28 13:21:27;;;;;;;8.82;2.72;;;15.70;87.70;;;;;;6276185;22;20003;-75
2023/08/28 13:23:55;;;;;;;4.45;2.80;;;15.60;87.70;;;;;;6276097;22;20019;-75
2023/08/28 13:26:23;;;;;;;5.30;2.53;;;15.60;87.80;;;;;;6276371;22;20000;-75
2023/08/28 13:28:50;;;;;;;4.72;2.72;;;15.50;87.70;;;;;;6276284;22;20307;-75
2023/08/28 13:31:17;;;;;;;7.70;2.60;;;15.50;87.80;;;;;;6276418;22;20540;-75
2023/08/28 13:33:45;;;;;;;4.22;2.33;;;15.40;88.00;;;;;;6276268;22;20004;-75
2023/08/28 13:36:12;;;;;;;8.25;2.92;;;15.40;88.00;;;;;;6274458;22;20427;-75
2023/08/28 13:38:39;;;;;;;7.32;2.78;;;15.40;88.00;;;;;;6276076;22;20006;-74
2023/08/28 13:41:07;;;;;;;5.03;2.80;;;15.30;88.00;;;;;;6276123;22;20000;-75
2023/08/28 13:43:34;;;;;;;4.70;2.58;;;15.20;88.10;;;;;;6276392;22;20015;-75
2023/08/28 13:46:01;;;;;;;4.82;2.70;;;15.20;88.30;;;;;;6276222;22;20110;-75
2023/08/28 13:48:29;;;;;;;11.05;2.60;;;15.20;88.30;;;;;;6276026;22;20075;-75
2023/08/28 13:50:56;;;;;;;7.18;2.85;;;15.10;88.50;;;;;;6275925;22;20015;-75
2023/08/28 13:53:25;;;;;;;6.70;3.00;;;15.10;88.60;;;;;;6275533;22;19995;-75
2023/08/28 13:55:56;;;;;;;5.22;2.63;;;15.20;88.70;;;;;;6274802;22;20003;-75
2023/08/28 13:58:23;;;;;;;7.65;3.00;;;15.20;88.60;;;;;;6274749;22;20327;-75
2023/08/28 14:01:02;;;;;;;5.80;3.00;;;15.10;88.50;;;;;;6276059;22;20304;-75
2023/08/28 14:03:31;;;;;;;10.55;3.15;;;15.10;88.80;;;;;;6274597;22;20042;-75
2023/08/28 14:06:05;;;;;;;6.85;2.88;;;15.10;88.70;;;;;;6275732;22;20004;-75
2023/08/28 14:08:33;;;;;;;6.13;2.90;;;15.10;88.90;;;;;;6274373;22;20010;-74
2023/08/28 14:11:10;;;;;;;4.38;2.78;;;15.00;88.80;;;;;;6274590;22;20007;-75
2023/08/28 14:13:38;;;;;;;9.20;3.35;;;15.00;88.90;;;;;;6275918;22;20080;-75
2023/08/28 14:16:05;;;;;;;6.25;2.95;;;15.00;88.90;;;;;;6275943;22;20010;-75
2023/08/28 14:18:33;;;;;;;5.50;3.35;;;15.00;88.90;;;;;;6275293;22;20000;-75
2023/08/28 14:21:00;;;;;;;8.25;3.17;;;14.90;89.10;;;;;;6275579;22;20004;-75
2023/08/28 14:23:27;;;;;;;6.85;3.45;;;14.90;89.10;;;;;;6275747;22;20008;-75
2023/08/28 14:25:57;;;;;;;8.25;3.33;;;14.90;89.10;;;;;;6275672;22;20023;-75
2023/08/28 14:28:25;;;;;;;6.28;2.92;;;14.80;89.10;;;;;;6249450;22;20008;-75
2023/08/28 14:30:52;;;;;;;8.65;3.30;;;14.80;89.10;;;;;;6275799;22;20010;-75
2023/08/28 14:33:20;;;;;;;6.78;3.20;;;14.80;89.00;;;;;;6274492;22;20308;-75
2023/08/28 14:35:47;;;;;;;9.23;3.97;;;14.80;89.20;;;;;;6275801;22;20437;-75
2023/08/28 14:38:14;;;;;;;7.53;3.60;;;14.80;89.10;;;;;;6274172;22;20011;-75
2023/08/28 14:40:42;;;;;;;8.65;3.92;;;14.80;89.30;;;;;;6274390;22;20010;-75
2023/08/28 14:43:09;;;;;;;6.75;3.83;;;14.80;89.10;;;;;;6274283;22;20003;-75
2023/08/28 14:45:37;;;;;;;7.05;4.03;;;14.70;89.10;;;;;;6276055;22;20453;-74
2023/08/28 14:48:04;;;;;;;7.10;4.30;;;14.70;89.20;;;;;;6274153;22;20362;-75
2023/08/28 14:50:32;;;;;;;8.20;3.97;;;14.70;89.30;;;;;;6275566;22;20020;-75
2023/08/28 14:52:59;;;;;;;9.73;4.40;;;14.70;89.20;;;;;;6274296;22;20061;-75
2023/08/28 14:55:27;;;;;;;6.80;4.30;;;14.70;89.40;;;;;;6274051;22;20440;-75
2023/08/28 14:57:55;;;;;;;9.85;3.90;;;14.60;89.30;;;;;;6275582;22;20329;-75
2023/08/28 15:00:22;;;;;;;6.93;4.35;;;14.60;89.30;;;;;;6275531;22;20074;-75
2023/08/28 15:02:49;;;;;;;10.73;4.07;;;14.50;89.30;;;;;;6275337;22;20015;-74
2023/08/28 15:05:17;;;;;;;7.40;4.63;;;14.50;89.40;;;;;;6277038;22;20043;-75
2023/08/28 15:07:44;;;;;;;8.02;4.15;;;14.50;89.40;;;;;;6277526;22;19996;-75
2023/08/28 15:10:11;;;;;;;9.40;4.60;;;14.40;89.20;;;;;;6277770;22;20007;-75
2023/08/28 15:12:38;;;;;;;8.13;4.20;;;14.40;89.50;;;;;;6276530;22;20050;-75
2023/08/28 15:15:06;;;;;;;6.93;4.50;;;14.40;89.70;;;;;;6277477;22;20026;-75
2023/08/28 15:17:34;;;;;;;10.52;4.90;;;14.30;89.70;;;;;;6277400;22;20453;-75
2023/08/28 15:20:01;;;;;;;9.77;4.78;;;14.30;89.70;;;;;;6275765;22;20074;-75
2023/08/28 15:22:28;;;;;;;10.68;4.68;;;14.30;89.70;;;;;;6277510;22;19995;-75
2023/08/28 15:24:55;;;;;;;11.63;4.95;;;14.30;89.70;;;;;;6277524;22;20031;-75
2023/08/28 15:27:23;;;;;;;8.32;5.03;;;14.20;89.70;;;;;;6277938;22;20000;-75
2023/08/28 15:29:51;;;;;;;6.95;4.90;;;14.20;89.80;;;;;;6275765;22;20437;-75
2023/08/28 15:32:18;;;;;;;7.85;4.35;;;14.20;89.80;;;;;;6277648;22;20004;-75
2023/08/28 15:34:45;;;;;;;7.38;4.85;;;14.20;89.60;;;;;;6277497;22;19996;-75
2023/08/28 15:37:13;;;;;;;10.05;5.15;;;14.20;89.60;;;;;;6277572;22;20004;-75
2023/08/28 15:39:40;;;;;;;7.00;4.80;;;14.20;89.80;;;;;;6277335;22;20000;-75
2023/08/28 15:42:07;;;;;;;8.85;5.20;;;14.10;89.80;;;;;;6277469;22;20000;-75
2023/08/28 15:44:34;;;;;;;7.55;4.85;;;14.00;89.80;;;;;;6277423;22;20082;-75
2023/08/28 15:47:02;;;;;;;8.35;5.03;;;14.00;89.80;;;;;;6276053;22;20000;-75
2023/08/28 15:49:29;;;;;;;8.88;5.45;;;14.00;89.70;;;;;;6277093;22;20000;-75
2023/08/28 15:51:56;;;;;;;9.00;5.43;;;14.00;89.90;;;;;;6250661;22;20015;-75
2023/08/28 15:54:23;;;;;;;9.73;5.35;;;13.90;89.90;;;;;;6275340;22;20007;-75
2023/08/28 15:56:50;;;;;;;6.35;5.25;;;13.90;90.00;;;;;;6277288;22;19996;-74
2023/08/28 15:59:18;;;;;;;9.85;5.10;;;13.80;90.10;;;;;;6276924;22;20062;-75
2023/08/28 16:01:46;;;;;;;11.05;5.60;;;13.80;90.30;;;;;;6275644;22;20062;-75
2023/08/28 16:04:15;;;;;;;8.60;4.80;;;13.80;90.10;;;;;;6276936;22;20094;-75
2023/08/28 16:06:42;;;;;;;7.88;5.18;;;13.80;90.30;;;;;;6277137;22;20000;-75
2023/08/28 16:09:09;;;;;;;9.95;5.55;;;13.80;90.40;;;;;;6275784;22;20019;-75
2023/08/28 16:11:37;;;;;;;7.85;5.28;;;13.70;90.60;;;;;;6276968;22;19996;-75
2023/08/28 16:14:04;;;;;;;7.03;5.20;;;13.80;90.70;;;;;;6276842;22;20007;-75
2023/08/28 16:16:31;;;;;;;8.13;5.35;;;13.70;90.50;;;;;;6274777;22;20004;-75
2023/08/28 16:19:01;;;;;;;10.75;5.75;;;13.70;90.70;;;;;;6276995;22;20046;-75
2023/08/28 16:21:28;;;;;;;8.77;5.80;;;13.70;90.90;;;;;;6276942;22;20065;-75
2023/08/28 16:23:56;;;;;;;8.00;5.25;;;13.70;90.90;;;;;;6275467;22;20404;-75
2023/08/28 16:26:23;;;;;;;13.77;5.68;;;13.80;90.90;;;;;;6276849;22;20015;-75
2023/08/28 16:28:50;;;;;;;7.65;5.43;;;13.80;91.10;;;;;;6276432;22;20038;-75
2023/08/28 16:31:17;;;;;;;9.15;4.82;;;13.80;91.10;;;;;;6276877;22;20007;-75
2023/08/28 16:33:44;;;;;;;8.80;5.15;;;13.80;90.90;;;;;;6277101;22;20435;-75
2023/08/28 16:36:12;;;;;;;8.15;5.07;;;13.80;90.90;;;;;;6276960;22;20206;-75
2023/08/28 16:38:39;;;;;;;7.88;4.80;;;13.80;90.90;;;;;;6274996;22;20427;-75
2023/08/28 16:41:06;;;;;;;6.80;4.40;;;13.80;91.10;;;;;;6276715;22;20006;-75
2023/08/28 16:43:33;;;;;;;6.70;4.60;;;13.80;90.90;;;;;;6276643;22;20015;-75
2023/08/28 16:46:01;;;;;;;9.27;4.65;;;13.80;91.10;;;;;;6276836;22;20007;-75
2023/08/28 16:48:28;;;;;;;9.00;4.72;;;13.80;91.00;;;;;;6275160;22;19999;-75
2023/08/28 16:50:58;;;;;;;7.25;4.55;;;13.70;91.20;;;;;;6275079;22;20016;-75
2023/08/28 16:53:27;;;;;;;10.80;5.07;;;13.70;91.00;;;;;;6276835;22;20449;-75
2023/08/28 16:55:54;;;;;;;7.85;4.68;;;13.70;90.80;;;;;;6275038;22;20015;-75
2023/08/28 16:58:21;;;;;;;8.73;5.07;;;13.70;91.00;;;;;;6276761;22;19999;-75
2023/08/28 17:00:48;;;;;;;7.70;4.80;;;13.70;90.90;;;;;;6276619;22;20096;-75
2023/08/28 17:03:17;;;;;;;7.32;4.85;;;13.60;90.80;;;;;;6250114;22;20534;-75
2023/08/28 17:05:51;;;;;;;8.75;5.30;;;13.60;90.80;;;;;;6276778;22;20000;-75
2023/08/28 17:08:18;;;;;;;9.18;5.00;;;13.60;91.00;;;;;;6275570;22;20126;-75
2023/08/28 17:10:45;;;;;;;7.35;4.97;;;13.50;90.90;;;;;;6276505;22;20022;-75
2023/08/28 17:13:13;;;;;;;9.18;5.72;;;13.50;91.10;;;;;;6275096;22;20000;-75
2023/08/28 17:15:40;;;;;;;7.00;5.38;;;13.50;91.30;;;;;;6276294;22;20422;-75
2023/08/28 17:18:07;;;;;;;9.63;6.40;;;13.50;91.30;;;;;;6276366;22;19999;-75
2023/08/28 17:20:35;;;;;;;10.68;6.32;;;13.50;91.30;;;;;;6277223;22;20058;-75
2023/08/28 17:23:02;;;;;;;10.65;6.60;;;13.40;91.50;;;;;;6276483;22;20012;-75
2023/08/28 17:25:29;;;;;;;10.50;6.90;;;13.40;91.40;;;;;;6274997;22;20004;-75
2023/08/28 17:27:56;;;;;;;11.05;7.10;;;13.40;91.50;;;;;;6276267;22;19995;-75
2023/08/28 17:30:24;;;;;;;10.38;6.68;;;13.40;91.50;;;;;;6276472;22;20351;-75
2023/08/28 17:32:54;;;;;;;9.13;6.57;;;13.50;91.30;;;;;;6274510;22;20004;-75
2023/08/28 17:35:24;;;;;;;9.23;6.85;;;13.40;91.40;;;;;;6249194;22;20031;-75
2023/08/28 17:37:51;;;;;;;10.13;6.87;;;13.40;91.30;;;;;;6274632;22;20022;-75
2023/08/28 17:40:19;;;;;;;11.55;7.25;;;13.40;91.10;;;;;;6276023;22;20257;-75
2023/08/28 17:42:46;;;;;;;10.57;6.57;;;13.40;90.80;;;;;;6274667;22;20057;-75
2023/08/28 17:45:13;;;;;;;15.55;7.25;;;13.30;90.70;;;;;;6276267;22;20308;-75
2023/08/28 17:47:40;;;;;;;8.60;6.78;;;13.40;90.70;;;;;;6276260;22;20006;-75
2023/08/28 17:50:08;;;;;;;13.07;6.72;;;13.30;90.70;;;;;;6275519;22;20086;-75
2023/08/28 17:52:36;;;;;;;11.80;7.18;;;13.30;90.50;;;;;;6276120;22;20007;-75
2023/08/28 17:55:04;;;;;;;10.60;7.25;;;13.30;90.50;;;;;;6276344;22;20075;-75
2023/08/28 17:57:31;;;;;;;9.80;6.93;;;13.30;90.40;;;;;;6275955;22;20026;-75
2023/08/28 17:59:59;;;;;;;11.30;7.22;;;13.20;90.30;;;;;;6275768;22;20066;-75
2023/08/28 18:02:26;;;;;;;13.55;6.78;;;13.20;90.40;;;;;;6276280;22;20033;-75
2023/08/28 18:04:53;;;;;;;10.50;7.05;;;13.20;90.60;;;;;;6274162;22;20066;-75
2023/08/28 18:07:23;;;;;;;17.23;7.43;;;13.20;90.30;;;;;;6276197;22;20071;-74
2023/08/28 18:09:50;;;;;;;13.05;6.65;;;13.20;90.40;;;;;;6275929;22;20007;-75
2023/08/28 18:12:19;;;;;;;11.20;6.60;;;13.20;90.60;;;;;;6276034;22;20408;-75
2023/08/28 18:14:47;;;;;;;11.60;6.43;;;13.10;90.60;;;;;;6275148;22;20067;-74
2023/08/28 18:17:16;;;;;;;10.27;6.75;;;13.00;90.70;;;;;;6275716;22;20015;-75
2023/08/28 18:19:43;;;;;;;10.93;6.70;;;13.10;90.80;;;;;;6275924;22;20374;-75
2023/08/28 18:22:11;;;;;;;13.82;6.97;;;13.00;90.60;;;;;;6276098;22;19999;-74
2023/08/28 18:24:38;;;;;;;10.07;7.03;;;13.10;90.90;;;;;;6275496;22;20046;-75
2023/08/28 18:27:06;;;;;;;12.80;7.35;;;13.10;91.10;;;;;;6275905;22;20376;-75
2023/08/28 18:29:34;;;;;;;10.43;7.03;;;13.20;91.10;;;;;;6275721;22;20003;-75
2023/08/28 18:32:02;;;;;;;12.13;6.60;;;13.00;90.80;;;;;;6275673;22;20427;-75
2023/08/28 18:34:29;;;;;;;13.57;6.40;;;13.10;90.90;;;;;;6275613;22;20069;-74
2023/08/28 18:36:57;;;;;;;10.50;6.20;;;13.10;90.80;;;;;;6275323;22;20122;-75
2023/08/28 18:39:24;;;;;;;9.38;6.20;;;13.10;90.90;;;;;;6275053;22;20058;-75
2023/08/28 18:41:51;;;;;;;12.93;6.55;;;13.00;90.90;;;;;;6275953;22;20003;-74
2023/08/28 18:44:18;;;;;;;12.57;6.32;;;13.00;90.90;;;;;;6275736;22;20346;-75
2023/08/28 18:46:45;;;;;;;10.18;6.25;;;13.00;91.00;;;;;;6276082;22;20004;-75
2023/08/28 18:49:13;;;;;;;8.93;5.43;;;13.00;91.10;;;;;;6275451;22;20501;-75
2023/08/28 18:51:40;;;;;;;10.60;6.00;;;13.00;91.00;;;;;;6275334;22;20046;-75
2023/08/28 18:54:07;;;;;;;8.20;5.78;;;12.90;91.00;;;;;;6276083;22;20299;-75
2023/08/28 18:56:34;;;;;;;8.48;5.85;;;12.90;91.10;;;;;;6275873;22;20004;-75
2023/08/28 18:59:02;;;;;;;10.10;5.85;;;12.90;91.00;;;;;;6275586;22;20000;-75
2023/08/28 19:01:30;;;;;;;10.15;5.85;;;12.80;90.80;;;;;;6275452;22;20030;-75
2023/08/28 19:03:57;;;;;;;9.32;5.63;;;12.80;90.70;;;;;;6273753;22;20012;-75
2023/08/28 19:06:25;;;;;;;9.75;5.28;;;12.80;90.50;;;;;;6275824;22;20187;-75
2023/08/28 19:08:53;;;;;;;8.25;5.53;;;12.80;90.70;;;;;;6275878;22;20458;-74
2023/08/28 19:11:21;;;;;;;10.43;5.70;;;12.80;90.70;;;;;;6275752;22;20086;-75
2023/08/28 19:13:48;;;;;;;9.02;5.90;;;12.70;91.00;;;;;;6275683;22;19996;-75
2023/08/28 19:16:16;;;;;;;9.27;5.70;;;12.70;90.90;;;;;;6275409;22;20011;-75
2023/08/28 19:18:43;;;;;;;7.78;5.95;;;12.70;90.90;;;;;;6275217;22;20485;-75
2023/08/28 19:21:10;;;;;;;11.57;6.40;;;12.60;90.60;;;;;;6275403;22;20054;-75
2023/08/28 19:23:38;;;;;;;10.85;6.55;;;12.60;91.00;;;;;;6275568;22;20480;-75
2023/08/28 19:26:05;;;;;;;15.40;7.10;;;12.60;91.20;;;;;;6275662;22;20011;-75
2023/08/28 19:28:32;;;;;;;11.70;6.78;;;12.70;91.50;;;;;;6275354;22;20308;-75
2023/08/28 19:30:59;;;;;;;10.82;7.03;;;12.70;91.30;;;;;;6275554;22;20022;-75
2023/08/28 19:33:26;;;;;;;12.32;6.75;;;12.70;91.20;;;;;;6273996;22;20089;-75
2023/08/28 19:35:54;;;;;;;11.15;6.82;;;12.70;91.30;;;;;;6275565;22;20007;-74
2023/08/28 19:38:22;;;;;;;12.25;7.13;;;12.70;91.30;;;;;;6273871;22;20004;-74
2023/08/28 19:40:49;;;;;;;14.85;6.90;;;12.60;91.20;;;;;;6275230;22;20032;-74
2023/08/28 19:43:17;;;;;;;11.07;6.40;;;12.60;91.10;;;;;;6275396;22;20004;-74
2023/08/28 19:45:44;;;;;;;11.27;6.50;;;12.60;91.00;;;;;;6275509;22;20008;-75
2023/08/28 19:48:12;;;;;;;9.50;5.68;;;12.60;91.00;;;;;;6273515;22;20004;-74
2023/08/28 19:50:39;;;;;;;9.32;5.88;;;12.60;91.00;;;;;;6276095;22;20414;-75
2023/08/28 19:53:07;;;;;;;11.10;5.63;;;12.50;90.60;;;;;;6275713;22;19999;-75
2023/08/28 19:55:37;;;;;;;7.78;5.55;;;12.50;90.80;;;;;;6277367;22;20067;-75
2023/08/28 19:58:04;;;;;;;9.50;5.63;;;12.50;90.80;;;;;;6277415;22;20067;-75
2023/08/28 20:00:31;;;;;;;9.88;6.25;;;12.50;91.00;;;;;;6277447;22;20006;-75
2023/08/28 20:02:59;;;;;;;8.40;6.47;;;12.50;91.30;;;;;;6275699;22;20022;-75
2023/08/28 20:05:26;;;;;;;12.40;6.72;;;12.40;91.30;;;;;;6277865;22;20007;-75
2023/08/28 20:07:53;;;;;;;10.75;6.50;;;12.50;91.50;;;;;;6277370;22;20004;-74
2023/08/28 20:10:20;;;;;;;8.75;6.47;;;12.50;91.60;;;;;;6277217;22;20074;-75
2023/08/28 20:12:48;;;;;;;14.40;7.28;;;12.50;91.60;;;;;;6277234;22;20419;-75
2023/08/28 20:15:15;;;;;;;11.48;7.05;;;12.50;91.60;;;;;;6276938;22;20327;-75
2023/08/28 20:17:43;;;;;;;12.57;6.95;;;12.50;91.70;;;;;;6277329;22;20003;-75
2023/08/28 20:20:12;;;;;;;11.77;7.00;;;12.50;91.40;;;;;;6275549;22;20006;-74
2023/08/28 20:22:39;;;;;;;14.07;7.47;;;12.50;91.40;;;;;;6277112;22;20050;-75
2023/08/28 20:25:07;;;;;;;14.20;8.13;;;12.40;91.60;;;;;;6276869;22;20382;-74
2023/08/28 20:27:34;;;;;;;13.40;8.13;;;12.50;91.60;;;;;;6276838;22;20023;-75
2023/08/28 20:30:03;;;;;;;12.25;7.97;;;12.40;91.50;;;;;;6276880;22;20199;-75
2023/08/28 20:32:30;;;;;;;11.38;7.40;;;12.40;91.40;;;;;;6277184;22;19999;-75
2023/08/28 20:34:58;;;;;;;12.75;8.10;;;12.40;91.40;;;;;;6277027;22;20000;-75
2023/08/28 20:37:26;;;;;;;13.25;7.50;;;12.40;91.50;;;;;;6276923;22;20023;-75
2023/08/28 20:39:53;;;;;;;10.68;7.13;;;12.40;91.50;;;;;;6275534;22;20075;-75
2023/08/28 20:42:21;;;;;;;10.23;7.38;;;12.40;91.50;;;;;;6275262;22;20000;-74